createdAt,value
2019-04-21T00:01:22.322Z,12.20
2019-04-21T00:04:02.544Z,10.73
2019-04-21T00:06:48.070Z,10.13
2019-04-21T00:09:24.266Z,10.23
2019-04-21T00:11:59.837Z,10.00
2019-04-21T00:14:21.998Z,10.60
2019-04-21T00:16:51.197Z,9.90
2019-04-21T00:19:25.999Z,9.73
2019-04-21T00:22:04.916Z,10.13
2019-04-21T00:24:41.359Z,9.97
2019-04-21T00:27:15.939Z,10.87
2019-04-21T00:32:10.095Z,10.13
2019-04-21T00:34:31.917Z,9.90
2019-04-21T00:37:15.190Z,10.33
2019-04-21T00:40:02.166Z,10.47
2019-04-21T00:42:29.092Z,10.67
2019-04-21T00:44:58.690Z,10.93
2019-04-21T00:47:38.691Z,10.90
2019-04-21T00:50:13.166Z,9.80
2019-04-21T00:53:05.581Z,13.57
2019-04-21T00:55:44.587Z,11.43
2019-04-21T00:58:26.929Z,11.70
2019-04-21T01:00:55.693Z,11.40
2019-04-21T01:03:25.816Z,10.03
2019-04-21T01:05:57.613Z,10.83
2019-04-21T01:08:31.106Z,10.50
2019-04-21T01:10:54.167Z,10.00
2019-04-21T01:13:41.496Z,10.33
2019-04-21T01:16:13.811Z,10.70
2019-04-21T01:18:42.672Z,10.90
2019-04-21T01:20:58.148Z,10.13
2019-04-21T01:23:29.822Z,9.97
2019-04-21T01:26:18.331Z,9.23
2019-04-21T01:28:58.698Z,9.97
2019-04-21T01:31:24.258Z,10.10
2019-04-21T01:34:04.482Z,10.30
2019-04-21T01:36:34.661Z,10.80
2019-04-21T01:39:14.958Z,10.53
2019-04-21T01:41:46.227Z,10.50
2019-04-21T01:44:24.875Z,9.87
2019-04-21T01:46:48.674Z,11.17
2019-04-21T01:49:21.946Z,11.27
2019-04-21T01:52:10.848Z,10.17
2019-04-21T01:54:55.953Z,11.67
2019-04-21T01:57:29.425Z,11.40
2019-04-21T01:59:56.982Z,10.63
2019-04-21T02:02:52.887Z,11.90
2019-04-21T02:05:17.041Z,12.00
2019-04-21T02:07:44.519Z,11.83
2019-04-21T02:10:22.668Z,11.10
2019-04-21T02:12:53.894Z,10.90
2019-04-21T02:15:31.141Z,11.27
2019-04-21T02:17:59.145Z,11.40
2019-04-21T02:20:26.839Z,11.37
2019-04-21T02:23:22.335Z,11.27
2019-04-21T02:25:44.583Z,11.70
2019-04-21T02:28:21.167Z,12.23
2019-04-21T02:31:18.075Z,11.90
2019-04-21T02:33:43.003Z,10.73
2019-04-21T02:36:22.870Z,12.20
2019-04-21T02:41:09.466Z,11.10
2019-04-21T02:46:27.451Z,11.80
2019-04-21T02:48:59.805Z,12.40
2019-04-21T02:51:28.254Z,11.47
2019-04-21T02:56:39.989Z,12.07
2019-04-21T03:10:09.479Z,12.30
2019-04-21T03:12:30.138Z,11.70
2019-04-21T03:15:15.683Z,11.87
2019-04-21T03:20:19.427Z,12.03
2019-04-21T03:22:58.136Z,10.77
2019-04-21T03:31:02.147Z,12.47
2019-04-21T03:38:16.659Z,11.80
2019-04-21T03:40:44.406Z,12.50
2019-04-21T03:43:20.815Z,11.97
2019-04-21T03:48:29.119Z,12.07
2019-04-21T03:50:59.376Z,11.90
2019-04-21T03:53:31.342Z,12.60
2019-04-21T03:56:01.038Z,12.10
2019-04-21T04:04:15.623Z,12.80
2019-04-21T04:07:08.219Z,11.63
2019-04-21T04:09:26.470Z,35.33
2019-04-21T04:14:45.882Z,12.10
2019-04-21T04:19:39.294Z,12.43
2019-04-21T04:22:17.223Z,12.43
2019-04-21T04:24:49.899Z,12.53
2019-04-21T04:27:36.918Z,12.00
2019-04-21T04:29:51.517Z,12.67
2019-04-21T04:32:29.240Z,12.27
2019-04-21T04:35:03.342Z,12.20
2019-04-21T04:37:36.219Z,11.87
2019-04-21T04:40:43.345Z,12.67
2019-04-21T04:43:21.235Z,12.17
2019-04-21T04:45:56.482Z,12.80
2019-04-21T04:48:28.841Z,12.87
2019-04-21T04:53:40.414Z,13.10
2019-04-21T04:56:08.087Z,13.23
2019-04-21T05:11:44.555Z,13.90
2019-04-21T05:14:11.604Z,13.50
2019-04-21T05:21:42.057Z,13.40
2019-04-21T05:24:10.822Z,12.90
2019-04-21T05:26:40.205Z,12.73
2019-04-21T05:29:11.874Z,12.87
2019-04-21T05:32:15.241Z,13.63
2019-04-21T05:34:31.543Z,13.60
2019-04-21T05:37:29.227Z,13.40
2019-04-21T05:40:04.399Z,12.90
2019-04-21T05:42:35.426Z,11.97
2019-04-21T05:45:21.115Z,13.33
2019-04-21T05:48:22.850Z,13.40
2019-04-21T05:50:46.154Z,13.20
2019-04-21T05:53:31.391Z,12.93
2019-04-21T05:55:58.663Z,13.53
2019-04-21T05:58:32.898Z,12.97
2019-04-21T06:01:16.137Z,13.13
2019-04-21T06:03:44.278Z,13.67
2019-04-21T06:06:20.489Z,13.23
2019-04-21T06:08:49.654Z,13.43
2019-04-21T06:11:28.141Z,13.40
2019-04-21T06:16:40.285Z,12.73
2019-04-21T06:19:26.607Z,12.43
2019-04-21T06:21:33.242Z,11.87
2019-04-21T06:24:13.026Z,12.73
2019-04-21T06:26:56.264Z,12.23
2019-04-21T06:29:15.003Z,12.40
2019-04-21T06:32:16.297Z,11.57
2019-04-21T06:34:24.950Z,12.80
2019-04-21T06:37:36.083Z,12.67
2019-04-21T06:40:01.906Z,11.40
2019-04-21T06:42:18.485Z,11.47
2019-04-21T06:45:01.907Z,10.87
2019-04-21T06:47:35.079Z,11.57
2019-04-21T06:50:00.495Z,11.60
2019-04-21T06:55:13.890Z,11.70
2019-04-21T06:57:44.440Z,12.17
2019-04-21T07:00:19.608Z,11.27
2019-04-21T07:03:02.916Z,11.43
2019-04-21T07:05:26.250Z,11.27
2019-04-21T07:08:16.919Z,12.00
2019-04-21T07:10:31.773Z,11.63
2019-04-21T07:13:03.651Z,10.63
2019-04-21T07:15:43.963Z,10.90
2019-04-21T07:18:10.980Z,11.50
2019-04-21T07:20:49.014Z,10.83
2019-04-21T07:23:28.492Z,10.87
2019-04-21T07:26:01.152Z,10.47
2019-04-21T07:28:32.291Z,10.87
2019-04-21T07:31:03.349Z,10.57
2019-04-21T07:36:17.479Z,9.73
2019-04-21T07:38:39.964Z,9.40
2019-04-21T07:41:09.277Z,9.70
2019-04-21T07:43:44.009Z,9.63
2019-04-21T07:46:14.456Z,9.10
2019-04-21T07:48:57.460Z,10.30
2019-04-21T07:51:49.068Z,9.93
2019-04-21T07:54:29.090Z,9.73
2019-04-21T07:56:34.895Z,9.87
2019-04-21T07:59:31.495Z,9.40
2019-04-21T08:01:55.155Z,9.23
2019-04-21T08:04:55.867Z,8.87
2019-04-21T08:07:04.886Z,9.27
2019-04-21T08:09:40.985Z,8.80
2019-04-21T08:12:12.730Z,9.13
2019-04-21T08:14:43.495Z,9.57
2019-04-21T08:17:16.444Z,9.17
2019-04-21T08:19:48.697Z,8.90
2019-04-21T08:22:27.179Z,8.73
2019-04-21T08:24:59.138Z,9.20
2019-04-21T08:27:37.002Z,10.07
2019-04-21T08:30:05.051Z,8.77
2019-04-21T08:33:05.488Z,9.57
2019-04-21T08:35:34.362Z,9.13
2019-04-21T08:37:43.052Z,8.57
2019-04-21T08:40:26.763Z,8.80
2019-04-21T08:45:30.876Z,9.23
2019-04-21T08:48:00.970Z,8.00
2019-04-21T08:50:30.901Z,7.63
2019-04-21T08:53:07.627Z,7.90
2019-04-21T08:55:55.399Z,8.13
2019-04-21T08:58:41.353Z,9.43
2019-04-21T09:01:24.000Z,7.33
2019-04-21T09:06:51.207Z,7.73
2019-04-21T09:09:03.627Z,7.77
2019-04-21T09:11:34.589Z,7.23
2019-04-21T09:14:13.195Z,6.43
2019-04-21T09:16:44.400Z,6.50
2019-04-21T09:19:33.959Z,7.10
2019-04-21T09:21:57.569Z,8.10
2019-04-21T09:24:31.525Z,7.43
2019-04-21T09:26:57.274Z,8.03
2019-04-21T09:29:28.311Z,8.13
2019-04-21T09:31:55.760Z,7.77
2019-04-21T09:34:35.870Z,7.80
2019-04-21T09:37:15.387Z,7.07
2019-04-21T09:39:41.873Z,8.27
2019-04-21T09:42:08.825Z,10.20
2019-04-21T09:44:44.054Z,9.03
2019-04-21T09:47:19.025Z,7.60
2019-04-21T09:49:49.435Z,8.63
2019-04-21T09:52:27.032Z,8.70
2019-04-21T09:55:04.090Z,8.57
2019-04-21T09:57:40.426Z,7.63
2019-04-21T10:00:12.626Z,8.00
2019-04-21T10:02:49.806Z,9.13
2019-04-21T10:05:12.683Z,7.50
2019-04-21T10:07:44.587Z,7.60
2019-04-21T10:10:17.260Z,8.63
2019-04-21T10:12:49.954Z,8.30
2019-04-21T10:15:24.622Z,8.57
2019-04-21T10:18:00.465Z,8.23
2019-04-21T10:20:33.101Z,7.93
2019-04-21T10:23:05.232Z,7.70
2019-04-21T10:25:36.865Z,8.23
2019-04-21T10:28:08.808Z,8.90
2019-04-21T10:30:40.814Z,9.93
2019-04-21T10:33:12.987Z,11.67
2019-04-21T10:35:46.772Z,7.93
2019-04-21T10:38:29.295Z,8.40
2019-04-21T10:40:51.815Z,7.50
2019-04-21T10:43:24.337Z,7.40
2019-04-21T10:45:57.117Z,7.70
2019-04-21T10:48:31.642Z,7.97
2019-04-21T10:51:03.230Z,8.10
2019-04-21T10:53:38.597Z,7.80
2019-04-21T10:56:19.196Z,7.87
2019-04-21T10:58:46.404Z,7.63
2019-04-21T11:01:21.037Z,8.97
2019-04-21T11:04:07.628Z,7.83
2019-04-21T11:06:40.009Z,8.97
2019-04-21T11:09:11.985Z,10.27
2019-04-21T11:11:46.391Z,8.10
2019-04-21T11:14:17.765Z,12.77
2019-04-21T11:16:51.524Z,8.03
2019-04-21T11:19:25.068Z,8.20
2019-04-21T11:21:58.687Z,7.60
2019-04-21T11:24:31.388Z,7.80
2019-04-21T11:27:04.333Z,7.97
2019-04-21T11:29:37.269Z,7.80
2019-04-21T11:32:09.370Z,7.10
2019-04-21T11:34:41.606Z,7.10
2019-04-21T11:37:16.433Z,8.17
2019-04-21T11:39:56.951Z,8.07
2019-04-21T11:42:48.115Z,8.00
2019-04-21T11:45:32.745Z,7.07
2019-04-21T11:48:14.773Z,8.97
2019-04-21T11:50:46.678Z,7.83
2019-04-21T11:53:18.954Z,7.50
2019-04-21T11:55:53.195Z,6.73
2019-04-21T11:58:24.068Z,6.83
2019-04-21T12:01:00.134Z,7.50
2019-04-21T12:03:31.948Z,8.03
2019-04-21T12:06:03.723Z,6.73
2019-04-21T12:08:42.256Z,7.70
2019-04-21T12:11:09.495Z,6.53
2019-04-21T12:13:45.859Z,7.53
2019-04-21T12:16:19.047Z,7.30
2019-04-21T12:18:50.977Z,6.07
2019-04-21T12:21:25.250Z,6.23
2019-04-21T12:24:02.722Z,7.33
2019-04-21T12:26:37.864Z,5.90
2019-04-21T12:29:10.595Z,6.03
2019-04-21T12:32:01.757Z,6.07
2019-04-21T12:34:36.142Z,7.00
2019-04-21T12:37:10.975Z,5.90
2019-04-21T12:39:45.448Z,5.90
2019-04-21T12:42:18.567Z,7.37
2019-04-21T12:44:51.636Z,5.77
2019-04-21T12:47:23.907Z,6.43
2019-04-21T12:49:56.907Z,6.80
2019-04-21T12:52:29.497Z,5.60
2019-04-21T12:55:01.828Z,5.27
2019-04-21T12:57:35.094Z,5.40
2019-04-21T13:00:11.078Z,6.33
2019-04-21T13:02:43.548Z,5.50
2019-04-21T13:05:15.826Z,5.07
2019-04-21T13:07:49.092Z,5.40
2019-04-21T13:10:22.218Z,6.87
2019-04-21T13:12:54.713Z,6.27
2019-04-21T13:15:27.339Z,7.60
2019-04-21T13:18:00.497Z,5.47
2019-04-21T13:20:32.371Z,5.87
2019-04-21T13:23:08.446Z,4.90
2019-04-21T13:25:41.936Z,5.37
2019-04-21T13:28:14.644Z,4.97
2019-04-21T13:30:48.597Z,5.10
2019-04-21T13:33:22.860Z,5.13
2019-04-21T13:35:57.213Z,5.87
2019-04-21T13:38:36.683Z,5.03
2019-04-21T13:41:21.440Z,7.30
2019-04-21T13:43:41.424Z,7.73
2019-04-21T13:46:12.954Z,4.83
2019-04-21T13:48:44.633Z,5.23
2019-04-21T13:51:17.457Z,5.13
2019-04-21T13:53:49.455Z,6.63
2019-04-21T13:56:20.841Z,5.30
2019-04-21T13:58:52.684Z,5.93
2019-04-21T14:01:25.496Z,11.83
2019-04-21T14:03:57.742Z,5.17
2019-04-21T14:06:30.143Z,6.60
2019-04-21T14:09:05.529Z,6.03
2019-04-21T14:11:37.868Z,5.30
2019-04-21T14:14:10.433Z,6.13
2019-04-21T14:16:42.344Z,5.00
2019-04-21T14:19:15.237Z,5.50
2019-04-21T14:21:49.529Z,5.10
2019-04-21T14:24:20.082Z,10.80
2019-04-21T14:26:52.188Z,6.47
2019-04-21T14:29:23.952Z,5.20
2019-04-21T14:31:56.033Z,4.93
2019-04-21T14:34:28.145Z,5.30
2019-04-21T14:36:59.671Z,4.73
2019-04-21T14:39:32.250Z,5.83
2019-04-21T14:42:04.425Z,4.53
2019-04-21T14:44:36.506Z,5.33
2019-04-21T14:47:27.116Z,5.80
2019-04-21T14:50:24.369Z,5.77
2019-04-21T14:53:20.326Z,5.50
2019-04-21T14:55:53.104Z,5.07
2019-04-21T14:58:25.444Z,4.30
2019-04-21T15:01:02.450Z,5.93
2019-04-21T15:03:37.448Z,5.10
2019-04-21T15:06:09.404Z,5.00
2019-04-21T15:08:40.776Z,4.47
2019-04-21T15:11:13.869Z,5.67
2019-04-21T15:13:45.932Z,5.00
2019-04-21T15:16:18.719Z,5.07
2019-04-21T15:18:50.610Z,4.70
2019-04-21T15:21:23.517Z,5.97
2019-04-21T15:23:56.239Z,5.10
2019-04-21T15:26:28.475Z,5.47
2019-04-21T15:29:00.032Z,5.67
2019-04-21T15:31:34.487Z,4.57
2019-04-21T15:34:05.408Z,6.00
2019-04-21T15:36:37.809Z,5.43
2019-04-21T15:39:10.113Z,7.37
2019-04-21T15:41:42.844Z,5.20
2019-04-21T15:44:14.680Z,5.33
2019-04-21T15:46:48.110Z,5.23
2019-04-21T15:49:20.819Z,5.10
2019-04-21T15:51:53.744Z,5.20
2019-04-21T15:54:26.798Z,4.47
2019-04-21T15:57:08.964Z,4.70
2019-04-21T15:59:58.297Z,4.10
2019-04-21T16:02:40.756Z,4.87
2019-04-21T16:05:13.002Z,5.57
2019-04-21T16:07:45.605Z,4.83
2019-04-21T16:10:28.274Z,4.77
2019-04-21T16:12:51.655Z,5.00
2019-04-21T16:15:23.881Z,5.40
2019-04-21T16:17:55.632Z,6.40
2019-04-21T16:20:27.992Z,5.37
2019-04-21T16:23:00.328Z,6.70
2019-04-21T16:25:32.810Z,5.30
2019-04-21T16:28:05.549Z,5.23
2019-04-21T16:30:38.321Z,4.87
2019-04-21T16:33:10.230Z,5.13
2019-04-21T16:35:42.022Z,4.20
2019-04-21T16:38:13.648Z,5.37
2019-04-21T16:40:52.587Z,5.10
2019-04-21T16:43:19.904Z,5.63
2019-04-21T16:45:52.870Z,5.23
2019-04-21T16:48:25.391Z,5.07
2019-04-21T16:50:57.498Z,5.20
2019-04-21T16:53:46.104Z,5.77
2019-04-21T16:56:37.466Z,4.70
2019-04-21T16:59:18.913Z,4.43
2019-04-21T17:01:50.468Z,4.50
2019-04-21T17:04:22.268Z,4.60
2019-04-21T17:06:55.379Z,4.30
2019-04-21T17:09:28.455Z,4.70
2019-04-21T17:12:05.549Z,5.17
2019-04-21T17:14:49.453Z,4.83
2019-04-21T17:17:32.286Z,4.33
2019-04-21T17:19:45.577Z,4.50
2019-04-21T17:22:13.607Z,4.27
2019-04-21T17:24:46.506Z,4.30
2019-04-21T17:27:18.117Z,4.50
2019-04-21T17:29:50.650Z,4.70
2019-04-21T17:32:33.579Z,4.43
2019-04-21T17:34:59.572Z,3.97
2019-04-21T17:37:32.448Z,4.23
2019-04-21T17:40:06.652Z,4.50
2019-04-21T17:42:47.484Z,5.20
2019-04-21T17:45:10.987Z,4.10
2019-04-21T17:47:49.821Z,4.10
2019-04-21T17:50:45.546Z,4.20
2019-04-21T17:53:38.221Z,3.90
2019-04-21T17:56:31.502Z,4.30
2019-04-21T17:58:59.872Z,5.87
2019-04-21T18:01:40.756Z,4.50
2019-04-21T18:04:10.861Z,4.20
2019-04-21T18:06:55.599Z,4.20
2019-04-21T18:09:42.128Z,4.23
2019-04-21T18:12:05.532Z,4.60
2019-04-21T18:14:20.677Z,4.40
2019-04-21T18:16:53.395Z,5.43
2019-04-21T18:19:28.681Z,4.77
2019-04-21T18:22:09.492Z,4.13
2019-04-21T18:24:54.213Z,4.90
2019-04-21T18:27:19.617Z,4.57
2019-04-21T18:29:54.810Z,4.13
2019-04-21T18:32:33.372Z,4.53
2019-04-21T18:35:12.589Z,4.40
2019-04-21T18:38:17.993Z,4.87
2019-04-21T18:40:47.439Z,4.80
2019-04-21T18:46:31.399Z,4.97
2019-04-21T18:49:01.016Z,5.00
2019-04-21T18:52:01.195Z,6.57
2019-04-21T18:54:51.518Z,5.17
2019-04-21T18:57:17.284Z,5.00
2019-04-21T18:59:43.048Z,6.27
2019-04-21T19:02:17.449Z,5.13
2019-04-21T19:04:46.838Z,5.90
2019-04-21T19:07:37.881Z,5.20
2019-04-21T19:10:31.899Z,5.23
2019-04-21T19:13:16.159Z,8.33
2019-04-21T19:15:18.298Z,5.10
2019-04-21T19:18:16.459Z,5.97
2019-04-21T19:20:25.562Z,5.77
2019-04-21T19:22:52.355Z,5.10
2019-04-21T19:25:34.337Z,5.83
2019-04-21T19:27:59.098Z,9.03
2019-04-21T19:31:04.377Z,5.77
2019-04-21T19:33:15.469Z,7.17
2019-04-21T19:35:29.920Z,6.47
2019-04-21T19:38:08.238Z,5.63
2019-04-21T19:40:50.913Z,5.77
2019-04-21T19:43:31.535Z,5.33
2019-04-21T19:45:56.443Z,6.37
2019-04-21T19:48:32.986Z,6.87
2019-04-21T19:51:07.164Z,6.13
2019-04-21T19:53:35.667Z,6.80
2019-04-21T19:55:54.181Z,6.40
2019-04-21T19:58:31.758Z,6.70
2019-04-21T20:00:59.735Z,7.10
2019-04-21T20:03:32.563Z,9.03
2019-04-21T20:06:16.290Z,6.83
2019-04-21T20:08:55.118Z,6.40
2019-04-21T20:11:30.767Z,7.47
2019-04-21T20:14:32.565Z,6.20
2019-04-21T20:16:39.221Z,6.53
2019-04-21T20:18:58.558Z,6.23
2019-04-21T20:21:24.881Z,6.30
2019-04-21T20:24:06.090Z,7.80
2019-04-21T20:26:39.118Z,7.77
2019-04-21T20:29:20.766Z,9.23
2019-04-21T20:31:51.521Z,8.37
2019-04-21T20:34:34.093Z,7.80
2019-04-21T20:37:02.166Z,8.97
2019-04-21T20:39:23.215Z,7.80
2019-04-21T20:42:01.735Z,8.53
2019-04-21T20:44:42.295Z,8.40
2019-04-21T20:47:07.490Z,8.13
2019-04-21T20:49:38.656Z,9.67
2019-04-21T20:52:22.385Z,8.43
2019-04-21T20:54:48.171Z,9.23
2019-04-21T20:57:26.006Z,9.53
2019-04-21T21:00:03.256Z,8.37
2019-04-21T21:02:36.191Z,8.20
2019-04-21T21:04:58.993Z,8.53
2019-04-21T21:07:47.262Z,9.80
2019-04-21T21:10:17.912Z,8.43
2019-04-21T21:13:06.279Z,9.10
2019-04-21T21:15:17.124Z,8.67
2019-04-21T21:18:04.434Z,8.67
2019-04-21T21:20:31.081Z,8.23
2019-04-21T21:22:57.321Z,8.37
2019-04-21T21:25:40.075Z,8.33
2019-04-21T21:28:00.627Z,8.60
2019-04-21T21:30:35.316Z,9.13
2019-04-21T21:33:15.222Z,8.50
2019-04-21T21:35:41.504Z,8.80
2019-04-21T21:38:26.538Z,9.27
2019-04-21T21:40:49.647Z,9.03
2019-04-21T21:43:14.302Z,8.77
2019-04-21T21:45:49.996Z,7.87
2019-04-21T21:48:36.683Z,9.57
2019-04-21T21:51:03.575Z,8.90
2019-04-21T21:53:28.467Z,8.57
2019-04-21T21:55:58.554Z,9.07
2019-04-21T21:58:36.057Z,8.90
2019-04-21T22:01:06.488Z,8.30
2019-04-21T22:03:42.752Z,8.53
2019-04-21T22:06:17.484Z,8.50
2019-04-21T22:08:43.493Z,8.87
2019-04-21T22:11:15.828Z,8.33
2019-04-21T22:13:55.722Z,8.33
2019-04-21T22:16:23.362Z,8.63
2019-04-21T22:19:13.275Z,8.87
2019-04-21T22:21:47.677Z,8.37
2019-04-21T22:24:09.198Z,8.63
2019-04-21T22:26:35.280Z,8.80
2019-04-21T22:29:07.705Z,8.20
2019-04-21T22:31:41.156Z,7.77
2019-04-21T22:34:15.755Z,12.93
2019-04-21T22:36:56.104Z,9.03
2019-04-21T22:39:34.953Z,8.10
2019-04-21T22:42:01.806Z,8.40
2019-04-21T22:44:25.170Z,9.27
2019-04-21T22:47:05.021Z,8.73
2019-04-21T22:52:02.909Z,8.87
2019-04-21T22:54:38.011Z,9.00
2019-04-21T22:57:21.985Z,9.17
2019-04-21T22:59:59.356Z,9.57
2019-04-21T23:02:29.613Z,9.33
2019-04-21T23:05:01.824Z,9.23
2019-04-21T23:07:44.151Z,9.93
2019-04-21T23:10:07.560Z,9.83
2019-04-21T23:12:41.828Z,8.63
2019-04-21T23:15:18.602Z,8.97
2019-04-21T23:18:06.565Z,9.70
2019-04-21T23:20:38.735Z,9.83
2019-04-21T23:23:11.734Z,9.30
2019-04-21T23:25:42.419Z,9.27
2019-04-21T23:28:15.953Z,8.97
2019-04-21T23:30:54.489Z,9.83
2019-04-21T23:33:12.797Z,9.73
2019-04-21T23:35:46.022Z,10.00
2019-04-21T23:38:26.587Z,9.13
2019-04-21T23:40:57.869Z,9.53
2019-04-21T23:43:29.162Z,9.93
2019-04-21T23:46:04.225Z,8.80
2019-04-21T23:48:51.819Z,10.03
2019-04-21T23:51:19.043Z,9.60
2019-04-21T23:53:39.588Z,9.40
2019-04-21T23:56:13.429Z,10.60
2019-04-21T23:58:52.026Z,9.50
